ASLAN51 EGVN-EGVN
Flight info
| Callsign | ASLAN51 |
|---|---|
| Flight time | N/A |
| Altitude | 5000 |
| Route | GST |
| Aircraft | A400/H-SDE2E3FGHIJ4J5M1RWXY/LB1D1 |
Departure
| Time | 2026-04-24 19:06 |
|---|---|
| Airport | RAF Brize Norton (EGVN) |
Arrival
| Time | N/A |
|---|---|
| Airport | RAF Brize Norton (EGVN) |
| Time | Latitude | Longitude | Altitude | Speed | Heading |
|---|---|---|---|---|---|
| 2026-04-24 18:54 | 51.75473 | -1.57429 | 273 ft | 0 kts | 298° |
| 2026-04-24 18:56 | 51.75482 | -1.57449 | 275 ft | 6 kts | 305° |
| 2026-04-24 18:56 | 51.75536 | -1.57476 | 273 ft | 10 kts | 2° |
| 2026-04-24 18:57 | 51.75610 | -1.57430 | 273 ft | 12 kts | 23° |
| 2026-04-24 18:57 | 51.75697 | -1.57383 | 275 ft | 14 kts | 19° |
| 2026-04-24 18:57 | 51.75792 | -1.57330 | 273 ft | 15 kts | 17° |
| 2026-04-24 18:57 | 51.75887 | -1.57298 | 273 ft | 13 kts | 355° |
| 2026-04-24 18:58 | 51.75931 | -1.57403 | 275 ft | 13 kts | 283° |
| 2026-04-24 18:58 | 51.75887 | -1.57521 | 273 ft | 14 kts | 209° |
| 2026-04-24 18:58 | 51.75788 | -1.57580 | 273 ft | 16 kts | 198° |
| 2026-04-24 18:58 | 51.75672 | -1.57639 | 275 ft | 18 kts | 197° |
| 2026-04-24 18:59 | 51.75545 | -1.57699 | 273 ft | 19 kts | 195° |
| 2026-04-24 18:59 | 51.75457 | -1.57776 | 273 ft | 10 kts | 219° |
| 2026-04-24 18:59 | 51.75388 | -1.57847 | 275 ft | 13 kts | 208° |
| 2026-04-24 18:59 | 51.75295 | -1.57926 | 274 ft | 16 kts | 207° |
| 2026-04-24 19:00 | 51.75186 | -1.58015 | 274 ft | 18 kts | 206° |
| 2026-04-24 19:00 | 51.75102 | -1.58083 | 276 ft | 14 kts | 206° |
| 2026-04-24 19:00 | 51.75008 | -1.58175 | 273 ft | 17 kts | 210° |
| 2026-04-24 19:00 | 51.74914 | -1.58256 | 273 ft | 15 kts | 208° |
| 2026-04-24 19:01 | 51.74823 | -1.58330 | 273 ft | 12 kts | 206° |
| 2026-04-24 19:01 | 51.74737 | -1.58403 | 274 ft | 15 kts | 209° |
| 2026-04-24 19:01 | 51.74654 | -1.58520 | 273 ft | 17 kts | 242° |
| 2026-04-24 19:01 | 51.74616 | -1.58710 | 274 ft | 19 kts | 253° |
| 2026-04-24 19:02 | 51.74577 | -1.58925 | 273 ft | 21 kts | 253° |
| 2026-04-24 19:02 | 51.74535 | -1.59156 | 273 ft | 23 kts | 254° |
| 2026-04-24 19:02 | 51.74482 | -1.59425 | 273 ft | 27 kts | 253° |
| 2026-04-24 19:02 | 51.74453 | -1.59588 | 273 ft | 10 kts | 254° |
| 2026-04-24 19:03 | 51.74431 | -1.59735 | 276 ft | 16 kts | 264° |
| 2026-04-24 19:03 | 51.74459 | -1.59937 | 273 ft | 20 kts | 291° |
| 2026-04-24 19:03 | 51.74475 | -1.59983 | 273 ft | 6 kts | 302° |
| 2026-04-24 19:03 | 51.74522 | -1.60053 | 273 ft | 11 kts | 332° |
| 2026-04-24 19:04 | 51.74529 | -1.60060 | 273 ft | 0 kts | 334° |
| 2026-04-24 19:04 | 51.74534 | -1.60063 | 273 ft | 4 kts | 334° |
| 2026-04-24 19:04 | 51.74580 | -1.60094 | 274 ft | 10 kts | 344° |
| 2026-04-24 19:05 | 51.74657 | -1.60064 | 275 ft | 12 kts | 40° |
| 2026-04-24 19:05 | 51.74690 | -1.59960 | 272 ft | 0 kts | 73° |
| 2026-04-24 19:05 | 51.74725 | -1.59767 | 271 ft | 63 kts | 73° |
| 2026-04-24 19:06 | 51.74951 | -1.58596 | 424 ft | 145 kts | 72° |
| 2026-04-24 19:06 | 51.75247 | -1.56818 | 880 ft | 182 kts | 76° |
| 2026-04-24 19:06 | 51.75578 | -1.54662 | 1334 ft | 214 kts | 77° |
| 2026-04-24 19:06 | 51.75972 | -1.52221 | 1937 ft | 233 kts | 75° |
| 2026-04-24 19:07 | 51.76394 | -1.49551 | 2288 ft | 255 kts | 77° |
| 2026-04-24 19:07 | 51.76760 | -1.46807 | 2762 ft | 231 kts | 78° |
| 2026-04-24 19:07 | 51.77134 | -1.44497 | 3558 ft | 204 kts | 72° |
| 2026-04-24 19:07 | 51.77918 | -1.42711 | 3725 ft | 194 kts | 35° |
| 2026-04-24 19:08 | 51.79190 | -1.42184 | 4206 ft | 193 kts | 355° |
| 2026-04-24 19:08 | 51.80420 | -1.43086 | 4750 ft | 202 kts | 317° |
| 2026-04-24 19:08 | 51.81127 | -1.45032 | 4970 ft | 205 kts | 280° |
| 2026-04-24 19:08 | 51.81103 | -1.47301 | 5002 ft | 203 kts | 258° |
| 2026-04-24 19:09 | 51.80801 | -1.49518 | 4992 ft | 202 kts | 254° |
| 2026-04-24 19:09 | 51.80458 | -1.51717 | 4996 ft | 202 kts | 253° |
| 2026-04-24 19:09 | 51.80103 | -1.53903 | 4997 ft | 202 kts | 254° |
| 2026-04-24 19:09 | 51.79747 | -1.56094 | 4991 ft | 202 kts | 253° |
| 2026-04-24 19:10 | 51.79389 | -1.58285 | 4992 ft | 202 kts | 253° |
| 2026-04-24 19:10 | 51.79033 | -1.60446 | 4993 ft | 202 kts | 253° |
| 2026-04-24 19:10 | 51.78674 | -1.62641 | 4992 ft | 202 kts | 253° |
| 2026-04-24 19:10 | 51.78316 | -1.64833 | 4995 ft | 202 kts | 253° |
| 2026-04-24 19:11 | 51.77961 | -1.67021 | 4976 ft | 197 kts | 253° |
| 2026-04-24 19:11 | 51.77607 | -1.69167 | 4762 ft | 201 kts | 253° |
| 2026-04-24 19:11 | 51.77240 | -1.71382 | 4290 ft | 207 kts | 253° |
| 2026-04-24 19:11 | 51.76861 | -1.73643 | 3777 ft | 211 kts | 253° |
| 2026-04-24 19:12 | 51.76472 | -1.75947 | 3286 ft | 213 kts | 253° |
| 2026-04-24 19:12 | 51.76085 | -1.78228 | 3012 ft | 206 kts | 253° |
| 2026-04-24 19:12 | 51.75707 | -1.80435 | 2982 ft | 202 kts | 253° |
| 2026-04-24 19:12 | 51.75333 | -1.82628 | 2984 ft | 202 kts | 253° |
| 2026-04-24 19:13 | 51.75081 | -1.84076 | 2976 ft | 202 kts | 251° |
| 2026-04-24 19:13 | 51.74084 | -1.86559 | 2980 ft | 197 kts | 216° |
| 2026-04-24 19:13 | 51.72856 | -1.87357 | 2984 ft | 190 kts | 179° |
| 2026-04-24 19:13 | 51.71635 | -1.86781 | 2985 ft | 184 kts | 140° |
| 2026-04-24 19:14 | 51.70906 | -1.85140 | 2987 ft | 183 kts | 109° |
| 2026-04-24 19:14 | 51.70767 | -1.83159 | 2986 ft | 184 kts | 83° |
| 2026-04-24 19:14 | 51.71042 | -1.81145 | 2984 ft | 184 kts | 76° |
| 2026-04-24 19:14 | 51.71370 | -1.79147 | 2986 ft | 184 kts | 77° |
| 2026-04-24 19:15 | 51.71679 | -1.77137 | 2991 ft | 184 kts | 78° |
| 2026-04-24 19:15 | 51.71964 | -1.75123 | 2990 ft | 184 kts | 79° |
| 2026-04-24 19:15 | 51.72268 | -1.73111 | 2984 ft | 184 kts | 75° |
| 2026-04-24 19:15 | 51.72626 | -1.71128 | 2981 ft | 183 kts | 75° |
| 2026-04-24 19:16 | 51.73365 | -1.67166 | 2994 ft | 184 kts | 75° |
| 2026-04-24 19:16 | 51.73733 | -1.65179 | 2995 ft | 184 kts | 75° |
| 2026-04-24 19:16 | 51.74099 | -1.63197 | 3000 ft | 185 kts | 75° |
| 2026-04-24 19:17 | 51.74465 | -1.61210 | 2997 ft | 185 kts | 75° |
| 2026-04-24 19:17 | 51.74830 | -1.59226 | 2990 ft | 185 kts | 75° |
| 2026-04-24 19:17 | 51.75195 | -1.57235 | 2996 ft | 185 kts | 75° |
| 2026-04-24 19:17 | 51.75558 | -1.55251 | 2988 ft | 184 kts | 75° |
| 2026-04-24 19:18 | 51.75920 | -1.53267 | 2989 ft | 184 kts | 75° |
| 2026-04-24 19:18 | 51.76285 | -1.51262 | 3042 ft | 192 kts | 75° |
| 2026-04-24 19:18 | 51.76675 | -1.49102 | 3565 ft | 210 kts | 75° |
| 2026-04-24 19:18 | 51.77092 | -1.46836 | 3903 ft | 208 kts | 71° |
| 2026-04-24 19:19 | 51.77748 | -1.44857 | 3978 ft | 194 kts | 53° |
| 2026-04-24 19:19 | 51.78757 | -1.43473 | 3983 ft | 190 kts | 28° |
| 2026-04-24 19:19 | 51.80040 | -1.42992 | 3989 ft | 192 kts | 359° |
| 2026-04-24 19:19 | 51.81306 | -1.43647 | 3990 ft | 194 kts | 326° |
| 2026-04-24 19:20 | 51.82172 | -1.45263 | 3992 ft | 195 kts | 294° |
| 2026-04-24 19:20 | 51.82407 | -1.47398 | 3996 ft | 194 kts | 262° |
| 2026-04-24 19:20 | 51.81927 | -1.49396 | 3998 ft | 191 kts | 235° |
| 2026-04-24 19:20 | 51.81111 | -1.51095 | 3995 ft | 191 kts | 225° |
| 2026-04-24 19:21 | 51.80163 | -1.52607 | 3991 ft | 191 kts | 220° |
| 2026-04-24 19:21 | 51.79163 | -1.54033 | 3995 ft | 191 kts | 218° |
| 2026-04-24 19:21 | 51.78148 | -1.55444 | 3997 ft | 192 kts | 218° |
| 2026-04-24 19:21 | 51.77141 | -1.56876 | 3995 ft | 192 kts | 219° |
| 2026-04-24 19:22 | 51.76481 | -1.57836 | 3992 ft | 193 kts | 220° |
| 2026-04-24 19:22 | 51.75168 | -1.59822 | 3992 ft | 193 kts | 225° |
| 2026-04-24 19:22 | 51.74643 | -1.61767 | 3986 ft | 194 kts | 271° |
| 2026-04-24 19:22 | 51.75175 | -1.63699 | 3993 ft | 193 kts | 321° |
| 2026-04-24 19:23 | 51.76383 | -1.64335 | 3993 ft | 188 kts | 11° |
| 2026-04-24 19:23 | 51.77523 | -1.63421 | 4003 ft | 185 kts | 46° |
| 2026-04-24 19:23 | 51.78260 | -1.61734 | 3997 ft | 184 kts | 69° |
| 2026-04-24 19:23 | 51.78531 | -1.59729 | 3999 ft | 183 kts | 86° |
| 2026-04-24 19:24 | 51.78557 | -1.57668 | 3993 ft | 183 kts | 93° |
| 2026-04-24 19:24 | 51.78460 | -1.55605 | 3995 ft | 184 kts | 97° |
| 2026-04-24 19:24 | 51.78299 | -1.53558 | 3994 ft | 184 kts | 98° |
| 2026-04-24 19:24 | 51.78097 | -1.51522 | 3992 ft | 183 kts | 105° |
| 2026-04-24 19:25 | 51.77548 | -1.49690 | 3993 ft | 182 kts | 129° |
| 2026-04-24 19:25 | 51.76526 | -1.48516 | 3991 ft | 184 kts | 161° |
| 2026-04-24 19:25 | 51.75263 | -1.48530 | 3991 ft | 187 kts | 199° |
| 2026-04-24 19:25 | 51.74270 | -1.49870 | 3993 ft | 192 kts | 240° |
| 2026-04-24 19:26 | 51.73947 | -1.51963 | 3999 ft | 196 kts | 264° |
| 2026-04-24 19:26 | 51.73975 | -1.54137 | 3997 ft | 198 kts | 275° |
| 2026-04-24 19:26 | 51.74178 | -1.56329 | 3994 ft | 199 kts | 279° |
| 2026-04-24 19:26 | 51.74449 | -1.58511 | 3997 ft | 199 kts | 281° |
| 2026-04-24 19:27 | 51.74768 | -1.60676 | 3995 ft | 199 kts | 283° |
| 2026-04-24 19:27 | 51.75014 | -1.62855 | 3988 ft | 197 kts | 269° |
| 2026-04-24 19:27 | 51.74988 | -1.65070 | 3996 ft | 198 kts | 266° |
| 2026-04-24 19:27 | 51.74920 | -1.67285 | 3992 ft | 198 kts | 265° |
| 2026-04-24 19:28 | 51.74841 | -1.69502 | 3992 ft | 198 kts | 265° |
| 2026-04-24 19:28 | 51.74760 | -1.71720 | 3987 ft | 199 kts | 265° |
| 2026-04-24 19:28 | 51.74700 | -1.73948 | 3984 ft | 200 kts | 267° |
| 2026-04-24 19:28 | 51.74662 | -1.76176 | 3986 ft | 202 kts | 268° |
| 2026-04-24 19:29 | 51.74602 | -1.80722 | 3985 ft | 203 kts | 267° |
| 2026-04-24 19:29 | 51.74407 | -1.82964 | 3980 ft | 201 kts | 249° |
| 2026-04-24 19:29 | 51.73673 | -1.84836 | 3974 ft | 197 kts | 220° |
| 2026-04-24 19:30 | 51.72508 | -1.85851 | 3747 ft | 189 kts | 190° |
| 2026-04-24 19:30 | 51.71216 | -1.85804 | 3356 ft | 187 kts | 161° |
| 2026-04-24 19:30 | 51.70110 | -1.84763 | 3042 ft | 184 kts | 133° |
| 2026-04-24 19:30 | 51.69449 | -1.83039 | 2977 ft | 183 kts | 107° |
| 2026-04-24 19:31 | 51.69213 | -1.81026 | 2988 ft | 184 kts | 94° |
| 2026-04-24 19:31 | 51.69396 | -1.79002 | 2980 ft | 184 kts | 72° |
| 2026-04-24 19:31 | 51.69883 | -1.77086 | 2972 ft | 184 kts | 68° |
| 2026-04-24 19:31 | 51.70421 | -1.75242 | 2680 ft | 182 kts | 65° |
| 2026-04-24 19:32 | 51.70981 | -1.73413 | 2352 ft | 180 kts | 66° |
| 2026-04-24 19:32 | 51.71567 | -1.71668 | 2145 ft | 174 kts | 58° |
| 2026-04-24 19:32 | 51.72341 | -1.70190 | 1918 ft | 171 kts | 46° |
| 2026-04-24 19:32 | 51.73204 | -1.68958 | 1764 ft | 159 kts | 57° |